Time;durP1;ratioP1;P1;durP2;ratioP2;P2;SDS_P1;SDS_P2;PMS_P1;PMS_P2;Temp;Humidity;BMP_temperature;BMP_pressure;BME280_temperature;BME280_humidity;BME280_pressure;Samples;Min_cycle;Max_cycle;Signal;HPM_P1;HPM_P2
2023/05/02 00:00:23;;;;;;;13.90;7.30;;;;;;;4.60;100.00;101681.77;107276;1246;70206;-72
2023/05/02 00:03:12;;;;;;;16.50;7.80;;;;;;;4.59;100.00;101683.17;107458;1242;73709;-71
2023/05/02 00:05:41;;;;;;;12.10;7.60;;;;;;;4.57;100.00;101683.09;107401;1245;59138;-70
2023/05/02 00:08:11;;;;;;;17.00;7.70;;;;;;;4.56;100.00;101688.82;107688;1242;60818;-70
2023/05/02 00:10:40;;;;;;;18.30;7.30;;;;;;;4.55;100.00;101691.96;107691;1251;71199;-71
2023/05/02 00:13:09;;;;;;;13.50;7.40;;;;;;;4.49;100.00;101692.98;107664;1238;72768;-71
2023/05/02 00:15:38;;;;;;;12.50;6.80;;;;;;;4.40;100.00;101694.14;107553;1251;70155;-71
2023/05/02 00:18:07;;;;;;;14.00;7.90;;;;;;;4.27;100.00;101695.91;107589;1250;64268;-71
2023/05/02 00:20:40;;;;;;;14.30;7.50;;;;;;;4.15;100.00;101699.20;107577;1243;61898;-71
2023/05/02 00:23:11;;;;;;;15.50;7.60;;;;;;;4.04;100.00;101698.66;107559;1250;58310;-71
2023/05/02 00:25:46;;;;;;;13.00;7.50;;;;;;;3.98;100.00;101697.98;107560;1238;72685;-69
2023/05/02 00:28:15;;;;;;;15.40;7.60;;;;;;;3.95;100.00;101698.40;107655;1241;72346;-69
2023/05/02 00:30:45;;;;;;;13.40;7.40;;;;;;;3.94;100.00;101703.79;107542;1251;70453;-70
2023/05/02 00:33:14;;;;;;;10.60;7.20;;;;;;;3.91;100.00;101706.64;107510;1242;63093;-70
2023/05/02 00:35:44;;;;;;;11.90;6.40;;;;;;;3.90;100.00;101709.92;107666;1249;59014;-69
2023/05/02 00:38:12;;;;;;;13.70;7.00;;;;;;;3.86;100.00;101710.21;107520;1251;60273;-69
2023/05/02 00:40:47;;;;;;;13.20;6.90;;;;;;;3.84;100.00;101716.48;107591;1240;73469;-69
2023/05/02 00:43:16;;;;;;;15.20;7.40;;;;;;;3.86;100.00;101720.39;107521;1251;73726;-69
2023/05/02 00:45:45;;;;;;;11.60;7.10;;;;;;;3.91;100.00;101722.50;107593;1239;70796;-69
2023/05/02 00:48:14;;;;;;;14.80;7.40;;;;;;;3.93;100.00;101723.12;107455;1245;74162;-69
2023/05/02 00:50:43;;;;;;;17.10;8.10;;;;;;;3.94;100.00;101717.92;107546;1248;59240;-70
2023/05/02 00:53:12;;;;;;;17.10;8.90;;;;;;;3.93;100.00;101718.45;107634;1248;59105;-70
2023/05/02 00:55:41;;;;;;;17.50;8.40;;;;;;;3.96;100.00;101715.43;107580;1242;62427;-70
2023/05/02 00:58:15;;;;;;;15.20;8.00;;;;;;;4.01;100.00;101713.92;107628;1251;61589;-70
2023/05/02 01:00:59;;;;;;;20.50;8.10;;;;;;;4.06;100.00;101713.45;107736;1242;59212;-70
2023/05/02 01:03:52;;;;;;;16.10;8.30;;;;;;;4.09;100.00;101717.82;107574;1242;72001;-70
2023/05/02 01:06:41;;;;;;;16.20;7.60;;;;;;;4.08;100.00;101711.13;107621;1242;62045;-69
2023/05/02 01:09:36;;;;;;;12.40;7.00;;;;;;;4.04;100.00;101710.06;107682;1242;59098;-69
2023/05/02 01:12:30;;;;;;;12.60;7.60;;;;;;;3.95;100.00;101710.30;107726;1242;62900;-69
2023/05/02 01:15:04;;;;;;;19.20;8.30;;;;;;;3.86;100.00;101715.91;107769;1250;61423;-70
2023/05/02 01:17:35;;;;;;;14.40;7.70;;;;;;;3.79;100.00;101718.34;107760;1242;70410;-71
2023/05/02 01:20:11;;;;;;;13.90;7.80;;;;;;;3.70;100.00;101717.20;107489;1245;64465;-72
2023/05/02 01:22:40;;;;;;;14.80;7.40;;;;;;;3.63;100.00;101717.60;107609;1242;61661;-71
2023/05/02 01:25:33;;;;;;;13.20;7.30;;;;;;;3.57;100.00;101714.83;107509;1241;59586;-72
2023/05/02 01:28:21;;;;;;;13.10;8.00;;;;;;;3.48;100.00;101711.44;107532;1248;72678;-71
2023/05/02 01:30:55;;;;;;;15.00;6.90;;;;;;;3.39;100.00;101711.86;107613;1249;61045;-69
2023/05/02 01:33:25;;;;;;;;;;;;;;;3.38;100.00;101709.65;107454;1238;71298;-69
2023/05/02 01:35:56;;;;;;;12.00;6.80;;;;;;;3.35;100.00;101705.25;107476;1245;63688;-69
2023/05/02 01:38:26;;;;;;;12.20;7.30;;;;;;;3.34;100.00;101704.42;107496;1242;59151;-68
2023/05/02 01:40:56;;;;;;;14.10;7.80;;;;;;;3.33;100.00;101700.48;107315;1243;58935;-69
2023/05/02 01:43:26;;;;;;;16.50;8.40;;;;;;;3.33;100.00;101699.94;107440;1238;63357;-70
2023/05/02 01:45:57;;;;;;;14.40;8.30;;;;;;;3.34;100.00;101697.19;107442;1242;70202;-70
2023/05/02 01:48:27;;;;;;;14.00;8.00;;;;;;;3.32;100.00;101700.34;107243;1247;70478;-69
2023/05/02 01:50:57;;;;;;;15.40;8.10;;;;;;;3.27;100.00;101699.95;107581;1243;71980;-69
2023/05/02 01:53:29;;;;;;;14.20;8.20;;;;;;;3.24;100.00;101695.39;107528;1242;59022;-69
2023/05/02 01:55:59;;;;;;;14.10;7.60;;;;;;;3.23;100.00;101693.34;107558;1248;61202;-69
2023/05/02 01:58:31;;;;;;;10.60;7.00;;;;;;;3.19;100.00;101693.96;107534;1238;71963;-70
2023/05/02 02:01:00;;;;;;;14.00;7.60;;;;;;;3.16;100.00;101693.86;107641;1242;72144;-71
2023/05/02 02:03:30;;;;;;;13.40;7.80;;;;;;;3.13;100.00;101696.02;107622;1242;59775;-70
2023/05/02 02:06:02;;;;;;;12.30;8.50;;;;;;;3.10;100.00;101698.84;107613;1241;62475;-70
2023/05/02 02:08:31;;;;;;;14.40;7.70;;;;;;;3.05;100.00;101696.91;107578;1241;60150;-71
2023/05/02 02:11:09;;;;;;;18.10;8.60;;;;;;;3.02;100.00;101697.86;107585;1251;58235;-71
2023/05/02 02:13:48;;;;;;;14.30;8.00;;;;;;;2.98;100.00;101700.52;107614;1242;70777;-71
2023/05/02 02:16:27;;;;;;;16.10;8.30;;;;;;;2.96;100.00;101701.45;107570;1246;72080;-71
2023/05/02 02:19:04;;;;;;;15.50;7.50;;;;;;;2.95;100.00;101699.39;107658;1242;70208;-71
2023/05/02 02:21:37;;;;;;;14.80;8.10;;;;;;;2.94;100.00;101698.38;107537;1241;72771;-71
2023/05/02 02:24:08;;;;;;;14.50;7.90;;;;;;;2.96;100.00;101696.96;107520;1242;61625;-71
2023/05/02 02:26:37;;;;;;;12.60;8.10;;;;;;;2.97;100.00;101695.22;107616;1242;61302;-72
2023/05/02 02:29:06;;;;;;;11.50;7.50;;;;;;;2.98;100.00;101697.10;107473;1238;73825;-71
2023/05/02 02:31:37;;;;;;;16.70;9.50;;;;;;;2.98;100.00;101699.15;107512;1243;72012;-70
2023/05/02 02:34:07;;;;;;;17.20;9.10;;;;;;;2.98;100.00;101698.11;107600;1244;69949;-71
2023/05/02 02:36:59;;;;;;;15.50;8.70;;;;;;;3.00;100.00;101703.06;107519;1238;74079;-71
2023/05/02 02:40:02;;;;;;;18.00;8.80;;;;;;;3.00;100.00;101709.08;107477;1241;61294;-71
2023/05/02 02:43:22;;;;;;;13.00;7.80;;;;;;;3.01;100.00;101713.02;107536;1241;60449;-70
2023/05/02 02:46:33;;;;;;;16.00;8.50;;;;;;;2.97;100.00;101711.58;107489;1251;73045;-71
2023/05/02 02:49:30;;;;;;;13.60;8.30;;;;;;;2.92;100.00;101708.23;107684;1238;71822;-71
2023/05/02 02:52:24;;;;;;;13.00;7.90;;;;;;;2.90;100.00;101708.81;107419;1245;70802;-71
2023/05/02 02:55:19;;;;;;;13.20;7.50;;;;;;;2.86;100.00;101710.29;107376;1243;73997;-70
2023/05/02 02:58:18;;;;;;;14.90;9.10;;;;;;;2.85;100.00;101715.30;107399;1243;60994;-68
2023/05/02 03:00:48;;;;;;;18.20;8.10;;;;;;;2.84;100.00;101715.16;107612;1240;61223;-70
2023/05/02 03:03:19;;;;;;;12.50;7.90;;;;;;;2.83;100.00;101714.13;107480;1242;63754;-71
2023/05/02 03:05:48;;;;;;;13.70;7.80;;;;;;;2.82;100.00;101716.90;107446;1238;71810;-70
2023/05/02 03:08:17;;;;;;;18.20;8.80;;;;;;;2.81;100.00;101715.39;107487;1242;67756;-70
2023/05/02 03:10:46;;;;;;;15.60;8.20;;;;;;;2.82;100.00;101713.48;107499;1251;72111;-71
2023/05/02 03:13:15;;;;;;;14.10;8.20;;;;;;;2.81;100.00;101715.90;107544;1241;61682;-71
2023/05/02 03:15:52;;;;;;;18.20;9.00;;;;;;;2.82;100.00;101714.33;107630;1242;60594;-70
2023/05/02 03:18:25;;;;;;;18.40;8.50;;;;;;;2.84;100.00;101713.60;107519;1238;72520;-72
2023/05/02 03:20:55;;;;;;;16.10;9.10;;;;;;;2.86;100.00;101717.34;107409;1242;71965;-71
2023/05/02 03:23:25;;;;;;;19.80;9.40;;;;;;;2.90;100.00;101722.25;107456;1242;60405;-72
2023/05/02 03:25:55;;;;;;;20.20;9.40;;;;;;;2.98;100.00;101728.06;107560;1248;73322;-71
2023/05/02 03:28:24;;;;;;;18.60;9.10;;;;;;;3.03;100.00;101726.20;107556;1242;58950;-72
2023/05/02 03:30:53;;;;;;;18.80;9.80;;;;;;;3.08;100.00;101727.82;107650;1239;60001;-71
2023/05/02 03:33:22;;;;;;;16.90;9.40;;;;;;;3.11;100.00;101728.41;107650;1250;62432;-68
2023/05/02 03:35:51;;;;;;;17.60;9.20;;;;;;;3.16;100.00;101737.75;107570;1243;60736;-69
2023/05/02 03:38:20;;;;;;;19.70;10.80;;;;;;;3.22;100.00;101741.56;107372;1238;70415;-69
2023/05/02 03:40:50;;;;;;;22.00;11.30;;;;;;;3.26;100.00;101746.13;107524;1248;73407;-68
2023/05/02 03:43:19;;;;;;;23.70;12.10;;;;;;;3.30;100.00;101749.11;107422;1245;61097;-70
2023/05/02 03:45:48;;;;;;;28.10;11.50;;;;;;;3.38;100.00;101748.73;107550;1250;59739;-69
2023/05/02 03:48:17;;;;;;;22.80;11.50;;;;;;;3.46;100.00;101751.29;107471;1243;69990;-68
2023/05/02 03:50:47;;;;;;;28.00;13.90;;;;;;;3.55;100.00;101751.23;107651;1247;61194;-73
2023/05/02 03:53:16;;;;;;;25.30;11.70;;;;;;;3.68;100.00;101756.89;107629;1251;59573;-72
2023/05/02 03:55:49;;;;;;;25.60;11.90;;;;;;;3.80;100.00;101757.45;107662;1239;74137;-72
2023/05/02 03:58:21;;;;;;;28.70;12.30;;;;;;;3.90;100.00;101757.65;107596;1241;60530;-69
2023/05/02 04:00:53;;;;;;;26.70;13.40;;;;;;;4.01;100.00;101753.76;107614;1243;59042;-71
2023/05/02 04:03:23;;;;;;;24.80;11.90;;;;;;;4.12;100.00;101755.48;107675;1246;72685;-71
2023/05/02 04:05:54;;;;;;;25.60;12.80;;;;;;;4.22;100.00;101756.58;107509;1242;62566;-70
2023/05/02 04:08:23;;;;;;;26.00;12.90;;;;;;;4.33;100.00;101759.36;107702;1249;60934;-71
2023/05/02 04:10:53;;;;;;;22.90;12.80;;;;;;;4.44;100.00;101760.92;107668;1241;72848;-74
2023/05/02 04:13:22;;;;;;;29.20;13.10;;;;;;;4.54;100.00;101761.48;107792;1247;59224;-72
2023/05/02 04:15:51;;;;;;;26.80;13.00;;;;;;;4.66;100.00;101759.91;107631;1241;59075;-72
2023/05/02 04:18:22;;;;;;;29.80;12.80;;;;;;;4.77;100.00;101765.42;107806;1239;73667;-70
2023/05/02 04:20:52;;;;;;;34.10;13.60;;;;;;;4.88;100.00;101764.77;107651;1247;62127;-71
2023/05/02 04:23:23;;;;;;;33.80;14.90;;;;;;;5.02;100.00;101762.23;107688;1238;59575;-71
2023/05/02 04:25:56;;;;;;;31.90;14.80;;;;;;;5.18;100.00;101762.23;107772;1239;72791;-70
2023/05/02 04:28:35;;;;;;;32.70;15.60;;;;;;;5.34;100.00;101761.86;107712;1246;63029;-71
2023/05/02 04:31:04;;;;;;;38.00;16.90;;;;;;;5.51;100.00;101764.89;107598;1239;61466;-72
2023/05/02 04:33:34;;;;;;;42.30;18.10;;;;;;;5.75;100.00;101759.05;107593;1250;73825;-71
2023/05/02 04:36:04;;;;;;;39.00;17.40;;;;;;;5.90;100.00;101761.80;107523;1241;61310;-72
2023/05/02 04:38:34;;;;;;;46.30;22.40;;;;;;;6.12;100.00;101758.63;107466;1250;69771;-72
2023/05/02 04:41:03;;;;;;;43.00;19.20;;;;;;;6.22;100.00;101761.71;107657;1249;73602;-72
2023/05/02 04:43:43;;;;;;;41.90;18.80;;;;;;;6.44;100.00;101756.19;107667;1242;59510;-72
2023/05/02 04:46:13;;;;;;;67.50;20.80;;;;;;;6.60;100.00;101761.11;107636;1241;58893;-72
2023/05/02 04:48:42;;;;;;;34.70;17.50;;;;;;;6.75;100.00;101761.73;107503;1244;63058;-72
2023/05/02 04:51:12;;;;;;;38.80;17.30;;;;;;;6.84;100.00;101762.25;107683;1238;60676;-72
2023/05/02 04:53:44;;;;;;;;;;;;;;;6.97;100.00;101766.21;107633;1241;59220;-71
2023/05/02 04:56:13;;;;;;;39.80;17.60;;;;;;;7.09;100.00;101765.73;107661;1241;74494;-73
2023/05/02 04:58:43;;;;;;;35.10;16.20;;;;;;;7.21;100.00;101766.26;107636;1239;60841;-71
2023/05/02 05:01:12;;;;;;;42.10;18.40;;;;;;;7.35;100.00;101763.08;107689;1242;61179;-71
2023/05/02 05:03:42;;;;;;;40.80;16.90;;;;;;;7.55;99.65;101761.89;107624;1238;72917;-71
2023/05/02 05:06:12;;;;;;;32.00;15.70;;;;;;;7.71;98.06;101760.69;107403;1241;71881;-72
2023/05/02 05:08:44;;;;;;;33.80;16.40;;;;;;;7.88;96.90;101761.82;107447;1248;69737;-72
2023/05/02 05:11:14;;;;;;;32.60;16.00;;;;;;;8.05;96.02;101760.53;107167;1245;72476;-71
2023/05/02 05:13:43;;;;;;;33.10;15.00;;;;;;;8.23;94.14;101755.04;107376;1249;59293;-71
2023/05/02 05:16:13;;;;;;;31.20;14.20;;;;;;;8.42;92.60;101758.70;107392;1241;59530;-71
2023/05/02 05:18:43;;;;;;;27.40;13.70;;;;;;;8.65;89.92;101764.04;107405;1244;63586;-72
2023/05/02 05:21:14;;;;;;;31.00;13.20;;;;;;;8.80;89.64;101765.92;107531;1248;61220;-71
2023/05/02 05:23:44;;;;;;;23.30;12.90;;;;;;;8.95;88.00;101769.91;107621;1245;59314;-72
2023/05/02 05:26:19;;;;;;;25.60;12.90;;;;;;;9.18;86.09;101765.77;107506;1238;72777;-71
2023/05/02 05:28:49;;;;;;;22.30;11.80;;;;;;;9.35;84.25;101762.35;107498;1241;59009;-71
2023/05/02 05:31:20;;;;;;;26.10;12.00;;;;;;;9.49;84.07;101763.91;107487;1241;60468;-71
2023/05/02 05:33:52;;;;;;;;;;;;;;;9.62;85.15;101763.38;107524;1239;73952;-71
2023/05/02 05:36:23;;;;;;;26.30;11.30;;;;;;;9.77;88.07;101764.55;107459;1248;73533;-71
2023/05/02 05:38:51;;;;;;;30.10;11.40;;;;;;;9.91;86.43;101763.78;107562;1246;70086;-73
2023/05/02 05:41:22;;;;;;;21.10;10.90;;;;;;;10.08;81.90;101762.35;107485;1249;73923;-75
2023/05/02 05:43:55;;;;;;;26.10;11.50;;;;;;;10.26;80.18;101758.62;107409;1244;58936;-73
2023/05/02 05:46:26;;;;;;;22.10;10.10;;;;;;;10.45;78.17;101757.48;107656;1238;60196;-73
2023/05/02 05:48:55;;;;;;;20.40;10.30;;;;;;;10.63;76.63;101758.70;107493;1246;63027;-74
2023/05/02 05:51:26;;;;;;;16.20;8.90;;;;;;;10.82;77.17;101758.16;107948;1238;71441;-76
2023/05/02 05:53:58;;;;;;;16.90;8.70;;;;;;;11.06;70.84;101759.74;107683;1249;71152;-74
2023/05/02 05:56:27;;;;;;;25.40;9.80;;;;;;;11.28;70.21;101760.73;107543;1251;63053;-74
2023/05/02 05:59:29;;;;;;;18.90;7.60;;;;;;;11.47;71.72;101761.55;107579;1248;59071;-74
2023/05/02 06:01:59;;;;;;;18.80;7.50;;;;;;;11.75;68.39;101758.81;107694;1251;61076;-75
2023/05/02 06:04:28;;;;;;;11.50;6.30;;;;;;;11.97;64.11;101764.11;107752;1243;63994;-73
2023/05/02 06:06:57;;;;;;;18.60;7.00;;;;;;;12.13;59.35;101767.13;107675;1249;61617;-73
2023/05/02 06:09:26;;;;;;;13.80;6.40;;;;;;;12.26;58.12;101751.99;107760;1241;59354;-74
2023/05/02 06:11:55;;;;;;;16.50;6.30;;;;;;;12.46;61.49;101762.05;107803;1242;73198;-73
2023/05/02 06:14:24;;;;;;;18.10;6.50;;;;;;;12.61;63.27;101760.80;107546;1241;59111;-73
2023/05/02 06:16:53;;;;;;;13.40;5.70;;;;;;;12.77;63.38;101759.21;107688;1243;59333;-73
2023/05/02 06:19:22;;;;;;;12.00;5.50;;;;;;;12.96;59.02;101760.98;107709;1242;62915;-72
2023/05/02 06:21:51;;;;;;;12.70;5.30;;;;;;;13.14;58.24;101760.80;107480;1251;72215;-73
2023/05/02 06:24:19;;;;;;;11.30;6.30;;;;;;;13.28;54.87;101757.06;107650;1242;70443;-73
2023/05/02 06:26:50;;;;;;;11.70;5.80;;;;;;;13.43;54.00;101756.45;107653;1238;74108;-74
2023/05/02 06:29:19;;;;;;;13.00;5.40;;;;;;;13.58;54.71;101755.05;107641;1241;59080;-75
2023/05/02 06:31:50;;;;;;;18.60;5.80;;;;;;;13.73;56.84;101755.23;107743;1241;58933;-74
2023/05/02 06:34:18;;;;;;;17.50;5.60;;;;;;;13.91;57.10;101756.64;107520;1241;73808;-72
2023/05/02 06:36:47;;;;;;;17.30;6.00;;;;;;;14.07;52.99;101754.64;107629;1238;72604;-73
2023/05/02 06:39:16;;;;;;;11.80;5.20;;;;;;;14.15;52.35;101757.61;107771;1251;69944;-75
2023/05/02 06:41:45;;;;;;;13.60;5.90;;;;;;;14.21;52.18;101757.46;107679;1241;73286;-74
2023/05/02 06:44:17;;;;;;;13.30;6.20;;;;;;;14.28;51.39;101757.70;107731;1240;60396;-73
2023/05/02 06:46:46;;;;;;;12.30;6.20;;;;;;;14.41;51.43;101755.54;107648;1241;60457;-76
2023/05/02 06:49:15;;;;;;;12.40;6.40;;;;;;;14.62;51.09;101757.19;107633;1251;72213;-73
2023/05/02 06:51:44;;;;;;;14.30;5.60;;;;;;;14.75;51.28;101758.84;107520;1242;62166;-74
2023/05/02 06:54:14;;;;;;;19.10;6.50;;;;;;;14.93;50.46;101760.33;107602;1251;70199;-74
2023/05/02 06:56:43;;;;;;;15.10;6.20;;;;;;;15.10;49.79;101757.88;107506;1251;63764;-74
2023/05/02 06:59:15;;;;;;;15.30;6.40;;;;;;;15.24;51.03;101758.56;107699;1238;59068;-73
2023/05/02 07:01:44;;;;;;;18.10;6.20;;;;;;;15.29;48.04;101755.52;107554;1241;57531;-73
2023/05/02 07:04:14;;;;;;;12.50;6.20;;;;;;;15.41;49.10;101760.10;107560;1243;72902;-74
2023/05/02 07:06:43;;;;;;;18.40;5.60;;;;;;;15.58;48.81;101762.46;107598;1241;61504;-74
2023/05/02 07:09:12;;;;;;;12.00;5.20;;;;;;;15.72;47.86;101760.33;107647;1242;59507;-74
2023/05/02 07:11:41;;;;;;;10.80;5.20;;;;;;;15.80;47.42;101758.31;107570;1241;62879;-76
2023/05/02 07:14:10;;;;;;;9.80;5.30;;;;;;;15.87;46.53;101763.43;107780;1243;62146;-73
2023/05/02 07:16:39;;;;;;;13.70;5.40;;;;;;;15.87;46.05;101763.21;107621;1251;57439;-74
2023/05/02 07:19:09;;;;;;;16.70;5.20;;;;;;;16.01;47.36;101753.70;107589;1242;73588;-74
2023/05/02 07:21:38;;;;;;;23.90;6.40;;;;;;;16.24;46.69;101762.48;107694;1247;71246;-75
2023/05/02 07:24:07;;;;;;;8.90;4.50;;;;;;;16.30;44.04;101762.63;107627;1238;70615;-75
2023/05/02 07:26:36;;;;;;;16.20;4.60;;;;;;;16.44;43.87;101762.38;107768;1238;73901;-74
2023/05/02 07:29:05;;;;;;;11.40;4.30;;;;;;;16.57;43.05;101758.55;107722;1251;61706;-73
2023/05/02 07:31:34;;;;;;;13.00;4.20;;;;;;;16.71;43.48;101760.22;107538;1251;60604;-73
2023/05/02 07:34:03;;;;;;;9.80;4.20;;;;;;;16.87;42.05;101757.67;107584;1240;73711;-73
2023/05/02 07:36:32;;;;;;;9.40;4.20;;;;;;;17.05;43.02;101759.73;107801;1248;72697;-74
2023/05/02 07:39:01;;;;;;;15.60;4.70;;;;;;;17.26;41.74;101754.05;107716;1241;60688;-74
2023/05/02 07:41:30;;;;;;;9.30;4.00;;;;;;;17.31;39.46;101752.80;107738;1248;63234;-74
2023/05/02 07:44:00;;;;;;;9.10;3.90;;;;;;;17.39;39.03;101751.27;107614;1244;59935;-73
2023/05/02 07:46:28;;;;;;;10.90;4.00;;;;;;;17.51;38.16;101748.27;107610;1242;60921;-73
2023/05/02 07:48:58;;;;;;;7.20;2.90;;;;;;;17.68;37.24;101748.86;107622;1251;75037;-73
2023/05/02 07:51:27;;;;;;;5.10;2.30;;;;;;;17.79;36.10;101746.91;107695;1238;69875;-74
2023/05/02 07:53:57;;;;;;;6.30;2.60;;;;;;;17.85;34.64;101747.11;107756;1241;60009;-74
2023/05/02 07:56:29;;;;;;;11.80;3.10;;;;;;;17.88;33.51;101748.45;107085;1242;824634;-75
2023/05/02 07:58:58;;;;;;;3.90;1.90;;;;;;;17.96;33.38;101747.25;107605;1241;58907;-75
2023/05/02 08:01:27;;;;;;;5.60;1.90;;;;;;;17.96;32.27;101746.64;107744;1238;59008;-75
2023/05/02 08:03:56;;;;;;;3.40;1.80;;;;;;;18.01;31.68;101752.26;107720;1248;62940;-75
2023/05/02 08:06:25;;;;;;;3.10;1.80;;;;;;;18.06;32.22;101758.35;107654;1241;60890;-75
2023/05/02 08:08:56;;;;;;;4.90;1.90;;;;;;;18.15;32.30;101756.81;107792;1249;59814;-74
2023/05/02 08:11:25;;;;;;;3.80;1.80;;;;;;;17.97;31.22;101756.79;107752;1240;72997;-75
2023/05/02 08:13:54;;;;;;;3.80;2.00;;;;;;;18.04;31.95;101758.00;107568;1241;61559;-74
2023/05/02 08:16:23;;;;;;;3.30;1.90;;;;;;;18.23;32.19;101760.31;107567;1248;59159;-75
2023/05/02 08:18:53;;;;;;;4.70;2.00;;;;;;;18.42;32.01;101759.77;107786;1238;73784;-75
2023/05/02 08:21:22;;;;;;;4.80;1.60;;;;;;;18.45;31.75;101761.04;107727;1241;71069;-75
2023/05/02 08:23:51;;;;;;;3.70;2.20;;;;;;;18.54;31.86;101760.92;107540;1245;69218;-75
2023/05/02 08:26:20;;;;;;;5.70;1.80;;;;;;;18.53;31.28;101758.05;107740;1251;73915;-75
2023/05/02 08:28:54;;;;;;;6.50;2.00;;;;;;;18.43;30.69;101753.80;107643;1242;58966;-73
2023/05/02 08:31:23;;;;;;;3.40;1.80;;;;;;;18.41;30.82;101755.40;107502;1242;57483;-74
2023/05/02 08:33:52;;;;;;;5.00;1.70;;;;;;;18.58;31.16;101755.67;107594;1242;62431;-74
2023/05/02 08:36:21;;;;;;;5.00;1.90;;;;;;;18.75;31.10;101754.88;107655;1242;61208;-75
2023/05/02 08:38:51;;;;;;;10.20;2.60;;;;;;;18.92;30.29;101752.04;107548;1244;60010;-75
2023/05/02 08:41:21;;;;;;;4.50;1.70;;;;;;;19.10;29.26;101752.58;107573;1238;73806;-75
2023/05/02 08:43:52;;;;;;;4.10;1.90;;;;;;;19.08;29.75;101753.23;107630;1242;62038;-74
2023/05/02 08:46:22;;;;;;;9.30;2.00;;;;;;;19.12;29.67;101750.09;107531;1240;59075;-75
2023/05/02 08:48:52;;;;;;;6.50;1.90;;;;;;;19.34;29.90;101750.34;107579;1238;73586;-75
2023/05/02 08:51:23;;;;;;;16.30;3.00;;;;;;;19.21;29.43;101749.36;107452;1241;72683;-76
2023/05/02 08:53:53;;;;;;;10.30;2.40;;;;;;;19.44;29.66;101751.46;107330;1244;69664;-76
2023/05/02 08:56:24;;;;;;;2.70;1.50;;;;;;;19.40;29.11;101747.65;107457;1251;65133;-74
2023/05/02 08:58:53;;;;;;;3.40;1.60;;;;;;;19.33;29.35;101744.23;107414;1242;61271;-74
2023/05/02 09:01:23;;;;;;;10.80;2.90;;;;;;;19.46;28.81;101745.52;107399;1248;61549;-75
2023/05/02 09:03:54;;;;;;;5.30;2.20;;;;;;;19.40;28.41;101741.83;107558;1242;63403;-74
2023/05/02 09:06:26;;;;;;;3.00;1.80;;;;;;;19.30;29.06;101741.68;107558;1242;71183;-74
2023/05/02 09:09:00;;;;;;;6.70;2.00;;;;;;;19.33;28.76;101737.20;107499;1240;71006;-74
2023/05/02 09:11:29;;;;;;;5.00;2.10;;;;;;;19.64;29.69;101733.92;107569;1248;74256;-75
2023/05/02 09:14:02;;;;;;;6.40;2.10;;;;;;;19.62;29.20;101730.23;107602;1249;59109;-74
2023/05/02 09:16:38;;;;;;;10.10;2.50;;;;;;;19.79;29.45;101735.15;107788;1242;62734;-72
2023/05/02 09:19:08;;;;;;;6.40;1.90;;;;;;;19.79;28.98;101733.55;107719;1242;64395;-75
2023/05/02 09:21:40;;;;;;;6.90;2.00;;;;;;;19.61;28.93;101733.44;107825;1241;61605;-74
2023/05/02 09:24:21;;;;;;;7.10;2.60;;;;;;;19.54;28.86;101725.59;107589;1244;70583;-74
2023/05/02 09:26:57;;;;;;;3.60;2.00;;;;;;;19.81;28.87;101725.79;107804;1248;65251;-74
2023/05/02 09:29:34;;;;;;;4.40;1.70;;;;;;;20.00;29.02;101728.17;107720;1241;60756;-74
2023/05/02 09:32:05;;;;;;;4.30;1.70;;;;;;;20.16;28.98;101731.60;107797;1238;61072;-73
2023/05/02 09:34:36;;;;;;;2.70;1.70;;;;;;;20.13;28.93;101729.08;107641;1242;73917;-74
2023/05/02 09:37:05;;;;;;;5.40;1.70;;;;;;;20.15;28.77;101722.65;107842;1242;62142;-74
2023/05/02 09:39:34;;;;;;;4.30;1.70;;;;;;;20.17;29.24;101723.92;107883;1239;60024;-75
2023/05/02 09:42:03;;;;;;;5.90;2.10;;;;;;;20.27;28.71;101722.73;107699;1241;63364;-75
2023/05/02 09:44:37;;;;;;;6.10;2.00;;;;;;;20.39;28.66;101715.55;107551;1238;59088;-74
2023/05/02 09:47:07;;;;;;;5.60;2.30;;;;;;;20.55;29.08;101711.02;107639;1242;61250;-74
2023/05/02 09:49:44;;;;;;;6.40;2.10;;;;;;;20.64;28.61;101705.15;107553;1243;63547;-74
2023/05/02 09:52:22;;;;;;;5.70;2.50;;;;;;;20.70;28.69;101705.64;107671;1248;70336;-74
2023/05/02 09:54:52;;;;;;;4.40;1.90;;;;;;;20.89;28.84;101702.45;107716;1242;70957;-75
2023/05/02 09:57:38;;;;;;;5.20;2.10;;;;;;;21.01;27.90;101702.30;107661;1249;74341;-74
2023/05/02 10:00:09;;;;;;;4.00;2.00;;;;;;;20.86;28.25;101698.54;107757;1241;58472;-74
2023/05/02 10:02:41;;;;;;;4.40;2.10;;;;;;;21.06;28.52;101695.95;107751;1238;61172;-75
2023/05/02 10:05:12;;;;;;;4.80;2.00;;;;;;;21.19;28.58;101693.16;107639;1238;72875;-74
2023/05/02 10:07:41;;;;;;;6.40;2.30;;;;;;;21.14;28.05;101688.41;107628;1238;72270;-73
2023/05/02 10:10:16;;;;;;;8.40;2.10;;;;;;;21.35;28.11;101694.34;107518;1241;60847;-73
2023/05/02 10:12:47;;;;;;;5.90;2.20;;;;;;;21.43;27.35;101693.29;107459;1238;74013;-74
2023/05/02 10:15:21;;;;;;;3.40;1.70;;;;;;;21.44;27.04;101695.96;107567;1241;62862;-73
2023/05/02 10:17:52;;;;;;;4.40;1.60;;;;;;;21.36;26.46;101697.15;107410;1238;60730;-73
2023/05/02 10:20:35;;;;;;;4.30;2.10;;;;;;;21.28;26.99;101690.30;107538;1244;62702;-73
2023/05/02 10:23:05;;;;;;;3.50;1.80;;;;;;;21.42;27.32;101688.41;107675;1248;72214;-74
2023/05/02 10:25:35;;;;;;;3.80;1.80;;;;;;;21.67;26.97;101689.23;107710;1242;61150;-74
2023/05/02 10:28:04;;;;;;;6.10;1.90;;;;;;;22.16;26.08;101684.55;107454;1244;62521;-74
2023/05/02 10:30:34;;;;;;;3.90;1.70;;;;;;;22.42;25.34;101682.80;107403;1241;61782;-73
2023/05/02 10:33:03;;;;;;;5.10;2.00;;;;;;;22.87;24.76;101684.30;107500;1248;59020;-74
2023/05/02 10:35:36;;;;;;;3.00;1.60;;;;;;;23.03;24.18;101683.13;107474;1238;73509;-74
2023/05/02 10:38:06;;;;;;;6.30;2.60;;;;;;;23.02;24.13;101682.19;107546;1248;61558;-74
2023/05/02 10:40:35;;;;;;;4.10;1.80;;;;;;;23.27;23.81;101683.50;107451;1242;59995;-74
2023/05/02 10:43:04;;;;;;;5.40;2.10;;;;;;;23.59;23.22;101683.94;107474;1249;63250;-73
2023/05/02 10:45:36;;;;;;;8.80;2.10;;;;;;;23.42;24.30;101682.20;107613;1241;58550;-74
2023/05/02 10:48:25;;;;;;;5.10;2.00;;;;;;;22.78;23.94;101679.83;107875;1238;59061;-75
2023/05/02 10:51:02;;;;;;;5.00;1.90;;;;;;;22.19;24.72;101675.48;107838;1244;62277;-75
2023/05/02 10:53:36;;;;;;;4.30;1.50;;;;;;;22.47;25.28;101678.02;107937;1239;60958;-74
2023/05/02 10:56:11;;;;;;;6.20;1.80;;;;;;;22.66;24.39;101674.73;107662;1238;68833;-74
2023/05/02 10:58:45;;;;;;;7.60;2.30;;;;;;;22.61;24.74;101669.36;107910;1239;62824;-76
2023/05/02 11:01:33;;;;;;;4.40;1.90;;;;;;;22.63;24.02;101669.89;107833;1238;61185;-75
2023/05/02 11:04:04;;;;;;;4.90;1.90;;;;;;;22.84;24.05;101667.27;107834;1238;60953;-75
2023/05/02 11:06:53;;;;;;;3.70;1.70;;;;;;;23.56;23.92;101669.78;107719;1241;62821;-75
2023/05/02 11:09:22;;;;;;;4.50;2.00;;;;;;;24.05;22.67;101671.80;107553;1242;73598;-74
2023/05/02 11:11:53;;;;;;;6.70;2.10;;;;;;;24.65;22.65;101659.91;107658;1249;70413;-74
2023/05/02 11:14:25;;;;;;;5.70;1.60;;;;;;;24.86;21.63;101661.98;107806;1238;74584;-74
2023/05/02 11:17:00;;;;;;;4.50;1.90;;;;;;;25.13;21.44;101660.23;107721;1250;61677;-75
2023/05/02 11:19:55;;;;;;;5.20;1.80;;;;;;;24.93;21.77;101662.42;107711;1238;59937;-75
2023/05/02 11:22:25;;;;;;;3.70;1.80;;;;;;;24.05;21.35;101668.50;107757;1244;73343;-77
2023/05/02 11:24:54;;;;;;;6.20;2.10;;;;;;;23.72;22.16;101665.83;107628;1238;72498;-74
2023/05/02 11:27:30;;;;;;;3.40;1.50;;;;;;;24.50;22.11;101665.41;107532;1244;71134;-74
2023/05/02 11:30:05;;;;;;;3.80;1.70;;;;;;;24.70;21.21;101662.13;107626;1246;74305;-74
2023/05/02 11:32:44;;;;;;;7.90;1.80;;;;;;;24.98;20.74;101658.09;107595;1239;59049;-75
2023/05/02 11:35:21;;;;;;;3.40;1.70;;;;;;;24.66;20.73;101650.52;107566;1239;60137;-74